createdAt,value
2018-03-26T00:00:17.913Z,1006.81
2018-03-26T00:01:17.897Z,1006.78
2018-03-26T00:02:17.888Z,1006.81
2018-03-26T00:03:17.886Z,1006.79
2018-03-26T00:04:17.876Z,1006.82
2018-03-26T00:05:17.869Z,1006.78
2018-03-26T00:06:17.874Z,1006.78
2018-03-26T00:07:17.857Z,1006.73
2018-03-26T00:08:17.853Z,1006.75
2018-03-26T00:09:18.056Z,1006.74
2018-03-26T00:10:17.839Z,1006.72
2018-03-26T00:11:17.845Z,1006.73
2018-03-26T00:12:17.831Z,1006.75
2018-03-26T00:13:17.823Z,1006.75
2018-03-26T00:14:17.825Z,1006.76
2018-03-26T00:15:17.826Z,1006.78
2018-03-26T00:16:17.832Z,1006.77
2018-03-26T00:17:17.796Z,1006.80
2018-03-26T00:18:17.801Z,1006.78
2018-03-26T00:19:17.790Z,1006.75
2018-03-26T00:20:17.778Z,1006.77
2018-03-26T00:21:17.772Z,1006.77
2018-03-26T00:22:17.766Z,1006.73
2018-03-26T00:23:17.760Z,1006.76
2018-03-26T00:24:17.757Z,1006.74
2018-03-26T00:25:17.759Z,1006.75
2018-03-26T00:26:17.759Z,1006.76
2018-03-26T00:27:17.770Z,1006.72
2018-03-26T00:28:17.730Z,1006.72
2018-03-26T00:29:17.725Z,1006.76
2018-03-26T00:30:17.748Z,1006.75
2018-03-26T00:31:17.710Z,1006.77
2018-03-26T00:32:17.708Z,1006.78
2018-03-26T00:33:17.715Z,1006.78
2018-03-26T00:34:17.704Z,1006.80
2018-03-26T00:35:17.891Z,1006.78
2018-03-26T00:36:17.690Z,1006.77
2018-03-26T00:37:17.675Z,1006.78
2018-03-26T00:38:17.671Z,1006.79
2018-03-26T00:39:17.676Z,1006.80
2018-03-26T00:40:17.656Z,1006.81
2018-03-26T00:41:17.648Z,1006.81
2018-03-26T00:42:17.850Z,1006.80
2018-03-26T00:43:17.647Z,1006.80
2018-03-26T00:44:17.633Z,1006.80
2018-03-26T00:45:17.636Z,1006.78
2018-03-26T00:46:17.619Z,1006.75
2018-03-26T00:47:17.611Z,1006.76
2018-03-26T00:48:17.615Z,1006.77
2018-03-26T00:49:17.599Z,1006.78
2018-03-26T00:50:17.596Z,1006.83
2018-03-26T00:51:17.589Z,1006.83
2018-03-26T00:52:17.580Z,1006.84
2018-03-26T00:53:17.578Z,1006.83
2018-03-26T00:54:17.569Z,1006.84
2018-03-26T00:55:17.575Z,1006.87
2018-03-26T00:56:17.555Z,1006.85
2018-03-26T00:57:17.556Z,1006.83
2018-03-26T00:58:17.544Z,1006.84
2018-03-26T00:59:17.541Z,1006.85
2018-03-26T01:00:17.529Z,1006.84
2018-03-26T01:01:17.541Z,1006.86
2018-03-26T01:02:17.526Z,1006.85
2018-03-26T01:03:17.513Z,1006.87
2018-03-26T01:04:17.520Z,1006.89
2018-03-26T01:05:17.503Z,1006.87
2018-03-26T01:06:17.512Z,1006.87
2018-03-26T01:07:17.488Z,1006.86
2018-03-26T01:08:17.494Z,1006.87
2018-03-26T01:09:17.476Z,1006.85
2018-03-26T01:10:17.471Z,1006.89
2018-03-26T01:11:17.474Z,1006.88
2018-03-26T01:12:17.475Z,1006.88
2018-03-26T01:13:17.465Z,1006.87
2018-03-26T01:14:17.446Z,1006.86
2018-03-26T01:15:17.441Z,1006.86
2018-03-26T01:16:17.430Z,1006.86
2018-03-26T01:17:17.434Z,1006.92
2018-03-26T01:18:17.422Z,1006.91
2018-03-26T01:19:17.415Z,1006.93
2018-03-26T01:20:17.407Z,1006.96
2018-03-26T01:21:17.418Z,1006.98
2018-03-26T01:22:17.407Z,1007.00
2018-03-26T01:23:17.404Z,1007.03
2018-03-26T01:24:17.395Z,1007.02
2018-03-26T01:25:17.389Z,1007.08
2018-03-26T01:26:17.389Z,1007.07
2018-03-26T01:27:17.382Z,1007.08
2018-03-26T01:28:17.358Z,1007.10
2018-03-26T01:29:17.399Z,1007.16
2018-03-26T01:30:17.359Z,1007.13
2018-03-26T01:31:17.352Z,1007.15
2018-03-26T01:32:17.344Z,1007.17
2018-03-26T01:33:17.326Z,1007.18
2018-03-26T01:34:17.336Z,1007.17
2018-03-26T01:35:17.325Z,1007.19
2018-03-26T01:36:17.320Z,1007.27
2018-03-26T01:37:17.330Z,1007.27
2018-03-26T01:38:17.310Z,1007.30
2018-03-26T01:39:17.290Z,1007.29
2018-03-26T01:40:17.295Z,1007.29
2018-03-26T01:41:17.291Z,1007.33
2018-03-26T01:42:17.276Z,1007.34
2018-03-26T01:43:17.526Z,1007.35
2018-03-26T01:44:17.275Z,1007.37
2018-03-26T01:45:17.466Z,1007.36
2018-03-26T01:46:17.252Z,1007.40
2018-03-26T01:47:17.241Z,1007.42
2018-03-26T01:48:17.235Z,1007.44
2018-03-26T01:49:17.449Z,1007.42
2018-03-26T01:50:17.238Z,1007.44
2018-03-26T01:51:17.222Z,1007.48
2018-03-26T01:52:17.238Z,1007.49
2018-03-26T01:53:17.218Z,1007.54
2018-03-26T01:54:17.203Z,1007.54
2018-03-26T01:55:17.190Z,1007.50
2018-03-26T01:56:17.388Z,1007.48
2018-03-26T01:57:17.226Z,1007.51
2018-03-26T01:58:17.175Z,1007.52
2018-03-26T01:59:17.170Z,1007.53
2018-03-26T02:00:17.189Z,1007.55
2018-03-26T02:01:17.157Z,1007.49
2018-03-26T02:02:17.147Z,1007.54
2018-03-26T02:03:17.138Z,1007.56
2018-03-26T02:04:17.151Z,1007.60
2018-03-26T02:05:17.333Z,1007.56
2018-03-26T02:06:17.134Z,1007.60
2018-03-26T02:07:17.131Z,1007.58
2018-03-26T02:08:17.356Z,1007.58
2018-03-26T02:09:17.334Z,1007.61
2018-03-26T02:10:17.093Z,1007.60
2018-03-26T02:11:17.086Z,1007.58
2018-03-26T02:12:17.100Z,1007.60
2018-03-26T02:13:17.104Z,1007.63
2018-03-26T02:14:17.067Z,1007.60
2018-03-26T02:15:17.062Z,1007.65
2018-03-26T02:16:17.261Z,1007.63
2018-03-26T02:17:17.251Z,1007.66
2018-03-26T02:18:17.256Z,1007.64
2018-03-26T02:19:17.238Z,1007.64
2018-03-26T02:20:17.029Z,1007.67
2018-03-26T02:21:17.238Z,1007.69
2018-03-26T02:22:17.013Z,1007.70
2018-03-26T02:23:17.021Z,1007.70
2018-03-26T02:24:17.003Z,1007.66
2018-03-26T02:25:17.005Z,1007.70
2018-03-26T02:26:17.042Z,1007.70
2018-03-26T02:27:16.983Z,1007.74
2018-03-26T02:28:16.990Z,1007.71
2018-03-26T02:29:16.980Z,1007.70
2018-03-26T02:30:17.165Z,1007.75
2018-03-26T02:31:17.159Z,1007.68
2018-03-26T02:32:16.961Z,1007.76
2018-03-26T02:33:16.954Z,1007.71
2018-03-26T02:34:16.958Z,1007.71
2018-03-26T02:35:17.142Z,1007.69
2018-03-26T02:36:17.131Z,1007.77
2018-03-26T02:37:17.128Z,1007.75
2018-03-26T02:38:17.124Z,1007.68
2018-03-26T02:39:17.105Z,1007.73
2018-03-26T02:40:16.893Z,1007.71
2018-03-26T02:41:17.094Z,1007.73
2018-03-26T02:42:17.095Z,1007.79
2018-03-26T02:43:16.873Z,1007.80
2018-03-26T02:44:16.889Z,1007.77
2018-03-26T02:45:17.063Z,1007.81
2018-03-26T02:46:16.869Z,1007.82
2018-03-26T02:47:16.847Z,1007.87
2018-03-26T02:48:16.845Z,1007.81
2018-03-26T02:49:17.036Z,1007.84
2018-03-26T02:50:16.833Z,1007.88
2018-03-26T02:51:16.833Z,1007.86
2018-03-26T02:52:17.019Z,1007.86
2018-03-26T02:53:16.806Z,1007.85
2018-03-26T02:54:17.002Z,1007.85
2018-03-26T02:55:16.803Z,1007.84
2018-03-26T02:56:16.783Z,1007.84
2018-03-26T02:57:16.984Z,1007.84
2018-03-26T02:58:16.771Z,1007.88
2018-03-26T02:59:16.786Z,1007.88
2018-03-26T03:00:16.756Z,1007.89
2018-03-26T03:01:16.964Z,1007.92
2018-03-26T03:02:16.971Z,1007.92
2018-03-26T03:03:16.735Z,1007.92
2018-03-26T03:04:16.943Z,1007.93
2018-03-26T03:05:16.930Z,1007.91
2018-03-26T03:06:16.716Z,1007.92
2018-03-26T03:07:16.713Z,1007.93
2018-03-26T03:08:16.701Z,1007.97
2018-03-26T03:09:16.713Z,1007.89
2018-03-26T03:10:16.687Z,1007.91
2018-03-26T03:11:16.693Z,1007.94
2018-03-26T03:12:16.674Z,1007.94
2018-03-26T03:13:16.670Z,1007.90
2018-03-26T03:14:16.664Z,1007.90
2018-03-26T03:15:16.863Z,1007.91
2018-03-26T03:16:16.647Z,1007.96
2018-03-26T03:17:16.853Z,1007.93
2018-03-26T03:18:16.632Z,1007.95
2018-03-26T03:19:16.848Z,1008.00
2018-03-26T03:20:16.617Z,1007.98
2018-03-26T03:21:16.625Z,1007.97
2018-03-26T03:22:16.810Z,1008.01
2018-03-26T03:23:16.600Z,1008.00
2018-03-26T03:24:16.599Z,1008.01
2018-03-26T03:25:16.789Z,1007.98
2018-03-26T03:26:16.580Z,1008.03
2018-03-26T03:27:16.633Z,1008.06
2018-03-26T03:28:16.573Z,1008.05
2018-03-26T03:29:16.561Z,1008.06
2018-03-26T03:30:16.562Z,1008.10
2018-03-26T03:31:16.753Z,1008.08
2018-03-26T03:32:16.738Z,1008.07
2018-03-26T03:33:16.545Z,1008.13
2018-03-26T03:34:16.543Z,1008.13
2018-03-26T03:35:16.516Z,1008.11
2018-03-26T03:36:16.713Z,1008.12
2018-03-26T03:37:16.500Z,1008.11
2018-03-26T03:38:16.698Z,1008.10
2018-03-26T03:39:16.689Z,1008.14
2018-03-26T03:40:16.481Z,1008.16
2018-03-26T03:41:16.469Z,1008.17
2018-03-26T03:42:16.475Z,1008.19
2018-03-26T03:43:16.454Z,1008.16
2018-03-26T03:44:16.450Z,1008.16
2018-03-26T03:45:16.456Z,1008.15
2018-03-26T03:46:16.438Z,1008.14
2018-03-26T03:47:16.642Z,1008.17
2018-03-26T03:48:16.622Z,1008.16
2018-03-26T03:49:16.412Z,1008.18
2018-03-26T03:50:16.609Z,1008.21
2018-03-26T03:51:16.405Z,1008.21
2018-03-26T03:52:16.598Z,1008.21
2018-03-26T03:53:16.398Z,1008.20
2018-03-26T03:54:16.386Z,1008.23
2018-03-26T03:55:16.373Z,1008.24
2018-03-26T03:56:16.377Z,1008.25
2018-03-26T03:57:16.358Z,1008.21
2018-03-26T03:58:16.380Z,1008.21
2018-03-26T03:59:16.352Z,1008.23
2018-03-26T04:00:16.555Z,1008.23
2018-03-26T04:01:16.339Z,1008.22
2018-03-26T04:02:16.524Z,1008.24
2018-03-26T04:03:16.314Z,1008.21
2018-03-26T04:04:16.522Z,1008.22
2018-03-26T04:05:16.303Z,1008.25
2018-03-26T04:06:16.293Z,1008.26
2018-03-26T04:07:16.288Z,1008.24
2018-03-26T04:08:16.276Z,1008.25
2018-03-26T04:09:16.271Z,1008.25
2018-03-26T04:10:16.275Z,1008.25
2018-03-26T04:11:16.256Z,1008.27
2018-03-26T04:12:16.249Z,1008.26
2018-03-26T04:13:16.279Z,1008.28
2018-03-26T04:14:16.261Z,1008.30
2018-03-26T04:15:16.239Z,1008.32
2018-03-26T04:16:16.245Z,1008.34
2018-03-26T04:17:16.433Z,1008.33
2018-03-26T04:18:16.438Z,1008.32
2018-03-26T04:19:16.198Z,1008.31
2018-03-26T04:20:16.194Z,1008.30
2018-03-26T04:21:16.186Z,1008.35
2018-03-26T04:22:16.189Z,1008.34
2018-03-26T04:23:16.174Z,1008.35
2018-03-26T04:24:16.165Z,1008.36
2018-03-26T04:25:16.171Z,1008.38
2018-03-26T04:26:16.173Z,1008.40
2018-03-26T04:27:16.353Z,1008.43
2018-03-26T04:28:16.143Z,1008.41
2018-03-26T04:29:16.129Z,1008.47
2018-03-26T04:30:16.121Z,1008.47
2018-03-26T04:31:16.114Z,1008.49
2018-03-26T04:32:16.110Z,1008.51
2018-03-26T04:33:16.144Z,1008.53
2018-03-26T04:34:16.096Z,1008.53
2018-03-26T04:35:16.288Z,1008.48
2018-03-26T04:36:16.082Z,1008.52
2018-03-26T04:37:16.069Z,1008.51
2018-03-26T04:38:16.272Z,1008.49
2018-03-26T04:39:16.282Z,1008.50
2018-03-26T04:40:16.049Z,1008.49
2018-03-26T04:41:16.046Z,1008.47
2018-03-26T04:42:16.241Z,1008.50
2018-03-26T04:43:16.025Z,1008.52
2018-03-26T04:44:16.031Z,1008.50
2018-03-26T04:45:16.027Z,1008.49
2018-03-26T04:46:16.006Z,1008.47
2018-03-26T04:47:16.007Z,1008.53
2018-03-26T04:48:15.992Z,1008.51
2018-03-26T04:49:16.198Z,1008.48
2018-03-26T04:50:15.976Z,1008.57
2018-03-26T04:51:15.971Z,1008.54
2018-03-26T04:52:15.964Z,1008.55
2018-03-26T04:53:15.954Z,1008.53
2018-03-26T04:54:16.152Z,1008.56
2018-03-26T04:55:15.950Z,1008.56
2018-03-26T04:56:15.935Z,1008.57
2018-03-26T04:57:15.936Z,1008.56
2018-03-26T04:58:15.934Z,1008.57
2018-03-26T04:59:15.921Z,1008.56
2018-03-26T05:00:15.900Z,1008.57
2018-03-26T05:01:15.899Z,1008.59
2018-03-26T05:02:16.154Z,1008.60
2018-03-26T05:03:16.124Z,1008.62
2018-03-26T05:04:15.898Z,1008.65
2018-03-26T05:05:15.892Z,1008.63
2018-03-26T05:06:16.114Z,1008.63
2018-03-26T05:07:15.869Z,1008.63
2018-03-26T05:08:15.857Z,1008.63
2018-03-26T05:09:15.840Z,1008.63
2018-03-26T05:10:15.840Z,1008.58
2018-03-26T05:11:16.027Z,1008.65
2018-03-26T05:12:16.031Z,1008.66
2018-03-26T05:13:15.810Z,1008.64
2018-03-26T05:14:15.804Z,1008.67
2018-03-26T05:15:15.808Z,1008.65
2018-03-26T05:16:15.788Z,1008.68
2018-03-26T05:17:15.792Z,1008.71
2018-03-26T05:18:15.772Z,1008.71
2018-03-26T05:19:15.765Z,1008.73
2018-03-26T05:20:15.757Z,1008.73
2018-03-26T05:21:15.752Z,1008.75
2018-03-26T05:22:15.744Z,1008.77
2018-03-26T05:23:15.734Z,1008.74
2018-03-26T05:24:15.934Z,1008.77
2018-03-26T05:25:15.750Z,1008.75
2018-03-26T05:26:15.921Z,1008.77
2018-03-26T05:27:15.717Z,1008.82
2018-03-26T05:28:15.700Z,1008.83
2018-03-26T05:29:15.696Z,1008.83
2018-03-26T05:30:15.686Z,1008.86
2018-03-26T05:31:15.692Z,1008.91
2018-03-26T05:32:15.670Z,1008.90
2018-03-26T05:33:15.665Z,1008.88
2018-03-26T05:34:15.656Z,1008.92
2018-03-26T05:35:15.651Z,1008.85
2018-03-26T05:36:15.845Z,1008.95
2018-03-26T05:37:15.638Z,1008.89
2018-03-26T05:38:15.643Z,1008.94
2018-03-26T05:39:15.623Z,1008.92
2018-03-26T05:40:15.614Z,1009.00
2018-03-26T05:41:15.610Z,1009.00
2018-03-26T05:42:15.602Z,1009.04
2018-03-26T05:43:15.593Z,1009.07
2018-03-26T05:44:15.585Z,1009.13
2018-03-26T05:45:15.592Z,1009.11
2018-03-26T05:46:15.583Z,1009.14
2018-03-26T05:47:15.570Z,1009.14
2018-03-26T05:48:15.556Z,1009.12
2018-03-26T05:49:15.554Z,1009.19
2018-03-26T05:50:15.558Z,1009.23
2018-03-26T05:51:15.551Z,1009.25
2018-03-26T05:52:15.568Z,1009.29
2018-03-26T05:53:15.535Z,1009.29
2018-03-26T05:54:15.516Z,1009.30
2018-03-26T05:55:15.531Z,1009.34
2018-03-26T05:56:15.716Z,1009.35
2018-03-26T05:57:15.520Z,1009.33
2018-03-26T05:58:15.701Z,1009.30
2018-03-26T05:59:15.491Z,1009.33
2018-03-26T06:00:15.474Z,1009.31
2018-03-26T06:01:15.470Z,1009.33
2018-03-26T06:02:15.462Z,1009.33
2018-03-26T06:03:15.451Z,1009.37
2018-03-26T06:04:15.449Z,1009.38
2018-03-26T06:05:15.442Z,1009.42
2018-03-26T06:06:15.432Z,1009.43
2018-03-26T06:07:15.427Z,1009.42
2018-03-26T06:08:15.637Z,1009.40
2018-03-26T06:09:15.412Z,1009.42
2018-03-26T06:10:15.419Z,1009.39
2018-03-26T06:11:15.613Z,1009.46
2018-03-26T06:12:15.399Z,1009.45
2018-03-26T06:13:15.399Z,1009.44
2018-03-26T06:14:15.382Z,1009.43
2018-03-26T06:15:15.372Z,1009.46
2018-03-26T06:16:15.367Z,1009.49
2018-03-26T06:17:15.565Z,1009.48
2018-03-26T06:18:15.394Z,1009.51
2018-03-26T06:19:15.344Z,1009.53
2018-03-26T06:20:15.364Z,1009.54
2018-03-26T06:21:15.330Z,1009.57
2018-03-26T06:22:15.324Z,1009.58
2018-03-26T06:23:15.321Z,1009.65
2018-03-26T06:24:15.312Z,1009.64
2018-03-26T06:25:15.315Z,1009.65
2018-03-26T06:26:15.296Z,1009.70
2018-03-26T06:27:15.493Z,1009.64
2018-03-26T06:28:15.287Z,1009.69
2018-03-26T06:29:15.285Z,1009.67
2018-03-26T06:30:15.283Z,1009.69
2018-03-26T06:31:15.263Z,1009.70
2018-03-26T06:32:15.266Z,1009.73
2018-03-26T06:33:15.258Z,1009.76
2018-03-26T06:34:15.242Z,1009.81
2018-03-26T06:35:15.236Z,1009.81
2018-03-26T06:36:15.232Z,1009.85
2018-03-26T06:37:15.433Z,1009.83
2018-03-26T06:38:15.213Z,1009.81
2018-03-26T06:39:15.206Z,1009.82
2018-03-26T06:40:15.200Z,1009.86
2018-03-26T06:41:15.205Z,1009.91
2018-03-26T06:42:15.183Z,1009.89
2018-03-26T06:43:15.206Z,1009.88
2018-03-26T06:44:15.184Z,1009.92
2018-03-26T06:45:15.181Z,1009.93
2018-03-26T06:46:15.156Z,1009.90
2018-03-26T06:47:15.148Z,1009.94
2018-03-26T06:48:15.143Z,1009.92
2018-03-26T06:49:15.146Z,1009.95
2018-03-26T06:50:15.127Z,1009.95
2018-03-26T06:51:15.118Z,1009.95
2018-03-26T06:52:15.114Z,1009.98
2018-03-26T06:53:15.122Z,1009.98
2018-03-26T06:54:15.110Z,1009.98
2018-03-26T06:55:15.093Z,1010.02
2018-03-26T06:56:15.101Z,1010.03
2018-03-26T06:57:15.089Z,1010.04
2018-03-26T06:58:15.073Z,1010.04
2018-03-26T06:59:15.075Z,1010.06
2018-03-26T07:00:15.059Z,1010.07
2018-03-26T07:01:15.266Z,1010.11
2018-03-26T07:02:15.072Z,1010.10
2018-03-26T07:03:15.052Z,1010.08
2018-03-26T07:04:15.248Z,1010.05
2018-03-26T07:05:15.027Z,1010.08
2018-03-26T07:06:15.238Z,1010.11
2018-03-26T07:07:15.037Z,1010.10
2018-03-26T07:08:15.028Z,1010.10
2018-03-26T07:09:14.997Z,1010.11
2018-03-26T07:10:14.988Z,1010.18
2018-03-26T07:11:15.000Z,1010.18
2018-03-26T07:12:14.993Z,1010.20
2018-03-26T07:13:14.984Z,1010.21
2018-03-26T07:14:14.977Z,1010.25
2018-03-26T07:15:14.956Z,1010.28
2018-03-26T07:16:14.952Z,1010.25
2018-03-26T07:17:14.942Z,1010.29
2018-03-26T07:18:14.936Z,1010.30
2018-03-26T07:19:14.926Z,1010.29
2018-03-26T07:20:14.921Z,1010.31
2018-03-26T07:21:14.926Z,1010.30
2018-03-26T07:22:14.922Z,1010.31
2018-03-26T07:23:14.901Z,1010.32
2018-03-26T07:24:14.914Z,1010.33
2018-03-26T07:25:14.894Z,1010.34
2018-03-26T07:26:14.882Z,1010.35
2018-03-26T07:27:14.876Z,1010.33
2018-03-26T07:28:14.868Z,1010.30
2018-03-26T07:29:14.872Z,1010.30
2018-03-26T07:30:15.059Z,1010.34
2018-03-26T07:31:14.849Z,1010.41
2018-03-26T07:32:14.853Z,1010.38
2018-03-26T07:33:14.848Z,1010.42
2018-03-26T07:34:15.049Z,1010.46
2018-03-26T07:35:15.027Z,1010.45
2018-03-26T07:36:15.020Z,1010.46
2018-03-26T07:37:14.836Z,1010.43
2018-03-26T07:38:14.805Z,1010.46
2018-03-26T07:39:15.002Z,1010.44
2018-03-26T07:40:14.795Z,1010.47
2018-03-26T07:41:14.812Z,1010.48
2018-03-26T07:42:14.788Z,1010.47
2018-03-26T07:43:14.777Z,1010.46
2018-03-26T07:44:14.778Z,1010.53
2018-03-26T07:45:14.761Z,1010.46
2018-03-26T07:46:14.755Z,1010.49
2018-03-26T07:47:14.967Z,1010.51
2018-03-26T07:48:14.745Z,1010.52
2018-03-26T07:49:14.749Z,1010.52
2018-03-26T07:50:14.740Z,1010.57
2018-03-26T07:51:14.739Z,1010.53
2018-03-26T07:52:14.715Z,1010.54
2018-03-26T07:53:14.711Z,1010.95
2018-03-26T07:54:14.710Z,1010.96
2018-03-26T07:55:14.699Z,1010.79
2018-03-26T07:56:14.692Z,1010.93
2018-03-26T07:57:14.689Z,1010.79
2018-03-26T07:58:14.684Z,1010.71
2018-03-26T07:59:14.880Z,1010.69
2018-03-26T08:00:14.883Z,1010.69
2018-03-26T08:01:14.666Z,1010.69
2018-03-26T08:02:14.888Z,1010.79
2018-03-26T08:03:14.651Z,1010.78
2018-03-26T08:04:14.849Z,1010.81
2018-03-26T08:05:14.651Z,1010.88
2018-03-26T08:06:14.645Z,1010.91
2018-03-26T08:07:14.643Z,1011.16
2018-03-26T08:08:14.829Z,1011.16
2018-03-26T08:09:14.626Z,1011.21
2018-03-26T08:10:14.648Z,1010.96
2018-03-26T08:11:14.824Z,1011.17
2018-03-26T08:12:14.604Z,1011.18
2018-03-26T08:13:14.614Z,1010.91
2018-03-26T08:14:14.801Z,1011.23
2018-03-26T08:15:14.590Z,1011.18
2018-03-26T08:16:14.606Z,1011.35
2018-03-26T08:17:14.693Z,1011.46
2018-03-26T08:18:14.590Z,1011.40
2018-03-26T08:19:14.776Z,1011.12
2018-03-26T08:20:14.569Z,1011.07
2018-03-26T08:21:14.574Z,1011.11
2018-03-26T08:22:14.571Z,1011.47
2018-03-26T08:23:14.569Z,1011.55
2018-03-26T08:24:14.566Z,1011.36
2018-03-26T08:25:14.754Z,1011.41
2018-03-26T08:26:14.750Z,1011.45
2018-03-26T08:27:14.543Z,1011.60
2018-03-26T08:28:14.553Z,1011.62
2018-03-26T08:29:14.537Z,1011.60
2018-03-26T08:30:14.741Z,1011.61
2018-03-26T08:31:14.538Z,1011.63
2018-03-26T08:32:14.538Z,1011.70
2018-03-26T08:33:14.729Z,1011.72
2018-03-26T08:34:14.522Z,1011.68
2018-03-26T08:35:14.734Z,1011.67
2018-03-26T08:36:14.526Z,1011.75
2018-03-26T08:37:14.526Z,1011.78
2018-03-26T08:38:14.720Z,1011.80
2018-03-26T08:39:14.509Z,1011.81
2018-03-26T08:40:14.507Z,1011.73
2018-03-26T08:41:14.713Z,1011.61
2018-03-26T08:42:14.531Z,1011.54
2018-03-26T08:43:14.501Z,1011.56
2018-03-26T08:44:14.498Z,1011.53
2018-03-26T08:45:14.494Z,1011.51
2018-03-26T08:46:14.490Z,1011.48
2018-03-26T08:47:14.507Z,1011.44
2018-03-26T08:48:14.485Z,1011.47
2018-03-26T08:49:14.482Z,1011.40
2018-03-26T08:50:14.706Z,1011.38
2018-03-26T08:51:14.474Z,1011.35
2018-03-26T08:52:14.673Z,1011.35
2018-03-26T08:53:14.465Z,1011.30
2018-03-26T08:54:14.476Z,1011.20
2018-03-26T08:55:14.457Z,1011.23
2018-03-26T08:56:14.493Z,1011.24
2018-03-26T08:57:14.655Z,1011.16
2018-03-26T08:58:14.651Z,1011.17
2018-03-26T08:59:14.661Z,1011.13
2018-03-26T09:00:14.440Z,1011.10
2018-03-26T09:01:14.434Z,1011.08
2018-03-26T09:02:14.634Z,1011.08
2018-03-26T09:03:14.424Z,1011.06
2018-03-26T09:04:14.420Z,1011.07
2018-03-26T09:05:14.620Z,1011.08
2018-03-26T09:06:14.411Z,1011.07
2018-03-26T09:07:14.609Z,1011.07
2018-03-26T09:08:14.411Z,1011.06
2018-03-26T09:09:14.398Z,1011.02
2018-03-26T09:10:14.392Z,1011.02
2018-03-26T09:11:14.593Z,1010.99
2018-03-26T09:12:14.598Z,1011.01
2018-03-26T09:13:14.389Z,1011.03
2018-03-26T09:14:14.383Z,1011.01
2018-03-26T09:15:14.367Z,1011.00
2018-03-26T09:16:14.365Z,1010.94
2018-03-26T09:17:14.372Z,1010.92
2018-03-26T09:18:14.351Z,1010.91
2018-03-26T09:19:14.549Z,1010.90
2018-03-26T09:20:14.339Z,1010.89
2018-03-26T09:21:14.539Z,1010.90
2018-03-26T09:22:14.331Z,1010.93
2018-03-26T09:23:14.534Z,1010.93
2018-03-26T09:24:14.540Z,1010.97
2018-03-26T09:25:14.531Z,1010.95
2018-03-26T09:26:14.518Z,1010.95
2018-03-26T09:27:14.518Z,1010.96
2018-03-26T09:28:14.304Z,1010.96
2018-03-26T09:29:14.306Z,1010.94
2018-03-26T09:30:14.287Z,1010.92
2018-03-26T09:31:14.484Z,1010.91
2018-03-26T09:32:14.299Z,1010.93
2018-03-26T09:33:14.477Z,1010.89
2018-03-26T09:34:14.272Z,1010.94
2018-03-26T09:35:14.270Z,1010.90
2018-03-26T09:36:14.253Z,1010.90
2018-03-26T09:37:14.455Z,1010.90
2018-03-26T09:38:14.448Z,1010.90
2018-03-26T09:39:14.236Z,1010.91
2018-03-26T09:40:14.438Z,1010.89
2018-03-26T09:41:14.430Z,1010.91
2018-03-26T09:42:14.223Z,1010.89
2018-03-26T09:43:14.231Z,1010.89
2018-03-26T09:44:14.425Z,1010.91
2018-03-26T09:45:14.206Z,1010.89
2018-03-26T09:46:14.226Z,1010.95
2018-03-26T09:47:14.397Z,1010.93
2018-03-26T09:48:14.190Z,1010.96
2018-03-26T09:49:14.188Z,1010.93
2018-03-26T09:50:14.383Z,1010.97
2018-03-26T09:51:14.184Z,1010.97
2018-03-26T09:52:14.182Z,1010.96
2018-03-26T09:53:14.161Z,1011.00
2018-03-26T09:54:14.371Z,1010.99
2018-03-26T09:55:14.155Z,1011.03
2018-03-26T09:56:14.349Z,1010.99
2018-03-26T09:57:14.139Z,1011.00
2018-03-26T09:58:14.158Z,1011.01
2018-03-26T09:59:14.137Z,1010.99
2018-03-26T10:00:14.123Z,1010.98
2018-03-26T10:01:14.116Z,1010.97
2018-03-26T10:02:14.117Z,1011.03
2018-03-26T10:03:14.110Z,1010.95
2018-03-26T10:04:14.177Z,1010.98
2018-03-26T10:05:14.096Z,1011.01
2018-03-26T10:06:14.105Z,1011.01
2018-03-26T10:07:14.100Z,1011.01
2018-03-26T10:08:14.106Z,1011.06
2018-03-26T10:09:14.085Z,1011.07
2018-03-26T10:10:14.072Z,1011.04
2018-03-26T10:11:14.081Z,1011.04
2018-03-26T10:12:14.060Z,1011.00
2018-03-26T10:13:14.256Z,1011.01
2018-03-26T10:14:14.048Z,1011.08
2018-03-26T10:15:14.062Z,1011.07
2018-03-26T10:16:14.048Z,1011.05
2018-03-26T10:17:14.032Z,1011.05
2018-03-26T10:18:14.026Z,1011.07
2018-03-26T10:19:14.019Z,1011.05
2018-03-26T10:20:14.032Z,1011.02
2018-03-26T10:21:14.213Z,1011.03
2018-03-26T10:22:14.220Z,1011.01
2018-03-26T10:23:14.002Z,1010.98
2018-03-26T10:24:13.993Z,1010.99
2018-03-26T10:25:14.007Z,1011.01
2018-03-26T10:26:13.982Z,1011.04
2018-03-26T10:27:14.182Z,1011.05
2018-03-26T10:28:13.988Z,1010.97
2018-03-26T10:29:13.970Z,1010.99
2018-03-26T10:30:13.979Z,1011.00
2018-03-26T10:31:13.982Z,1011.05
2018-03-26T10:32:14.164Z,1011.03
2018-03-26T10:33:13.944Z,1011.02
2018-03-26T10:34:13.939Z,1011.01
2018-03-26T10:35:13.945Z,1011.02
2018-03-26T10:36:13.929Z,1011.08
2018-03-26T10:37:13.934Z,1011.05
2018-03-26T10:38:13.922Z,1011.08
2018-03-26T10:39:13.910Z,1011.11
2018-03-26T10:40:14.111Z,1011.09
2018-03-26T10:41:13.904Z,1011.10
2018-03-26T10:42:14.106Z,1011.12
2018-03-26T10:43:13.892Z,1011.11
2018-03-26T10:44:13.898Z,1011.13
2018-03-26T10:45:14.088Z,1011.11
2018-03-26T10:46:13.879Z,1011.13
2018-03-26T10:47:13.870Z,1011.09
2018-03-26T10:48:13.866Z,1011.13
2018-03-26T10:49:13.860Z,1011.06
2018-03-26T10:50:13.858Z,1011.08
2018-03-26T10:51:14.063Z,1011.04
2018-03-26T10:52:13.873Z,1011.08
2018-03-26T10:53:13.849Z,1011.04
2018-03-26T10:54:13.838Z,1011.00
2018-03-26T10:55:13.833Z,1011.03
2018-03-26T10:56:13.837Z,1011.04
2018-03-26T10:57:13.817Z,1011.04
2018-03-26T10:58:13.816Z,1011.04
2018-03-26T10:59:13.808Z,1011.05
2018-03-26T11:00:14.010Z,1011.05
2018-03-26T11:01:14.011Z,1011.04
2018-03-26T11:02:13.796Z,1011.01
2018-03-26T11:03:13.798Z,1011.06
2018-03-26T11:04:13.782Z,1010.99
2018-03-26T11:05:13.990Z,1011.02
2018-03-26T11:06:13.773Z,1011.03
2018-03-26T11:07:13.787Z,1011.04
2018-03-26T11:08:13.760Z,1010.98
2018-03-26T11:09:13.759Z,1011.07
2018-03-26T11:10:13.751Z,1011.07
2018-03-26T11:11:13.756Z,1011.09
2018-03-26T11:12:13.742Z,1011.09
2018-03-26T11:13:13.957Z,1011.07
2018-03-26T11:14:13.732Z,1011.09
2018-03-26T11:15:13.728Z,1011.10
2018-03-26T11:16:13.734Z,1011.12
2018-03-26T11:17:13.746Z,1011.08
2018-03-26T11:18:13.712Z,1011.11
2018-03-26T11:19:13.704Z,1011.07
2018-03-26T11:20:13.701Z,1011.15
2018-03-26T11:21:13.697Z,1011.13
2018-03-26T11:22:13.693Z,1011.12
2018-03-26T11:23:13.687Z,1011.15
2018-03-26T11:24:13.694Z,1011.18
2018-03-26T11:25:13.881Z,1011.18
2018-03-26T11:26:13.675Z,1011.19
2018-03-26T11:27:13.679Z,1011.18
2018-03-26T11:28:13.682Z,1011.15
2018-03-26T11:29:13.678Z,1011.18
2018-03-26T11:30:13.680Z,1011.18
2018-03-26T11:31:13.649Z,1011.21
2018-03-26T11:32:13.644Z,1011.24
2018-03-26T11:33:13.655Z,1011.22
2018-03-26T11:34:13.637Z,1011.22
2018-03-26T11:35:13.834Z,1011.27
2018-03-26T11:36:13.658Z,1011.22
2018-03-26T11:37:13.621Z,1011.24
2018-03-26T11:38:13.628Z,1011.29
2018-03-26T11:39:13.613Z,1011.26
2018-03-26T11:40:13.812Z,1011.25
2018-03-26T11:41:13.624Z,1011.22
2018-03-26T11:42:13.599Z,1011.20
2018-03-26T11:43:13.604Z,1011.22
2018-03-26T11:44:13.805Z,1011.23
2018-03-26T11:45:13.803Z,1011.28
2018-03-26T11:46:13.793Z,1011.28
2018-03-26T11:47:13.577Z,1011.32
2018-03-26T11:48:13.571Z,1011.31
2018-03-26T11:49:13.564Z,1011.30
2018-03-26T11:50:13.578Z,1011.32
2018-03-26T11:51:13.762Z,1011.33
2018-03-26T11:52:13.552Z,1011.27
2018-03-26T11:53:13.548Z,1011.26
2018-03-26T11:54:13.541Z,1011.30
2018-03-26T11:55:13.539Z,1011.29
2018-03-26T11:56:13.534Z,1011.33
2018-03-26T11:57:13.540Z,1011.34
2018-03-26T11:58:13.755Z,1011.34
2018-03-26T11:59:13.518Z,1011.29
2018-03-26T12:00:13.538Z,1011.31
2018-03-26T12:01:13.731Z,1011.34
2018-03-26T12:02:13.505Z,1011.35
2018-03-26T12:03:13.729Z,1011.28
2018-03-26T12:04:13.496Z,1011.27
2018-03-26T12:05:13.491Z,1011.28